Time;durP1;ratioP1;P1;durP2;ratioP2;P2;SDS_P1;SDS_P2;PMS_P1;PMS_P2;Temp;Humidity;BMP_temperature;BMP_pressure;BME280_temperature;BME280_humidity;BME280_pressure;Samples;Min_cycle;Max_cycle;Signal;HPM_P1;HPM_P2
2021/12/16 00:08:54;;;;;;;3.85;1.98;;;8.30;99.90;;;;;;4987836;28;20035;-72
2021/12/16 00:33:32;;;;;;;5.07;1.83;;;8.40;99.90;;;;;;4987525;28;20041;-70
2021/12/16 00:35:59;;;;;;;7.33;2.90;;;8.30;99.90;;;;;;4987645;28;20029;-71
2021/12/16 00:38:24;;;;;;;4.95;1.85;;;8.20;99.90;;;;;;4986833;28;20467;-71
2021/12/16 00:40:50;;;;;;;6.63;2.85;;;8.20;99.90;;;;;;4986986;28;20031;-71
2021/12/16 00:54:10;;;;;;;10.88;2.95;;;8.30;99.90;;;;;;4986708;28;20062;-71
2021/12/16 00:56:41;;;;;;;5.97;2.45;;;8.30;99.90;;;;;;4987431;28;20027;-73
2021/12/16 00:59:09;;;;;;;10.75;2.50;;;8.30;99.90;;;;;;4985951;28;20093;-72
2021/12/16 01:01:51;;;;;;;6.00;2.67;;;8.30;99.90;;;;;;4986944;28;20062;-72
2021/12/16 01:35:06;;;;;;;11.93;3.28;;;8.20;99.90;;;;;;4985836;28;20065;-71
2021/12/16 01:47:58;;;;;;;9.27;3.55;;;8.30;99.90;;;;;;4985811;28;20414;-72
2021/12/16 01:50:32;;;;;;;10.35;4.32;;;8.30;99.90;;;;;;4986036;28;20023;-71
2021/12/16 01:53:18;;;;;;;11.18;4.15;;;8.30;99.90;;;;;;4985437;28;20038;-71
2021/12/16 01:56:51;;;;;;;22.20;4.72;;;8.30;99.90;;;;;;4986115;28;20035;-70
2021/12/16 01:58:44;;;;;;;8.35;3.38;;;8.30;99.90;;;;;;4982005;28;20042;-72
2021/12/16 02:01:20;;;;;;;14.00;3.88;;;8.30;99.90;;;;;;4985732;28;20023;-71
2021/12/16 02:03:53;;;;;;;8.63;3.92;;;8.30;99.90;;;;;;4985987;28;20022;-72
2021/12/16 02:06:46;;;;;;;7.95;3.25;;;8.30;99.90;;;;;;4985590;28;20078;-70
2021/12/16 02:09:24;;;;;;;7.97;3.65;;;8.40;99.90;;;;;;4984596;28;20383;-72
2021/12/16 02:12:01;;;;;;;18.30;5.47;;;8.40;99.90;;;;;;4985079;28;20041;-71
2021/12/16 02:28:46;;;;;;;12.00;4.20;;;8.40;99.90;;;;;;4985031;28;20081;-71
2021/12/16 02:36:22;;;;;;;14.98;5.53;;;8.50;99.90;;;;;;4985692;28;20026;-73
2021/12/16 02:38:53;;;;;;;11.48;4.57;;;8.50;99.90;;;;;;4984911;28;20027;-71
2021/12/16 02:41:19;;;;;;;8.55;4.35;;;8.50;99.90;;;;;;4984890;28;20050;-71
2021/12/16 02:44:07;;;;;;;18.17;6.00;;;8.60;99.90;;;;;;4985281;28;20110;-72
2021/12/16 02:49:17;;;;;;;;;;;8.60;99.90;;;;;;4985750;28;20053;-72
2021/12/16 02:51:44;;;;;;;14.77;5.22;;;8.60;99.90;;;;;;4985283;28;20351;-71
2021/12/16 02:54:10;;;;;;;13.55;4.50;;;8.60;99.90;;;;;;4985585;28;20027;-71
2021/12/16 02:56:37;;;;;;;13.82;4.50;;;8.60;99.90;;;;;;4985079;28;20023;-73
2021/12/16 02:59:04;;;;;;;10.00;4.97;;;8.60;99.90;;;;;;4985258;28;20023;-71
2021/12/16 03:01:38;;;;;;;14.52;5.40;;;8.60;99.90;;;;;;4985295;28;20065;-71
2021/12/16 03:04:09;;;;;;;;;;;8.70;99.90;;;;;;4985809;28;20076;-71
2021/12/16 03:06:37;;;;;;;15.73;6.60;;;8.70;99.90;;;;;;4985147;28;19929;-70
2021/12/16 03:09:06;;;;;;;20.02;5.68;;;8.70;99.90;;;;;;4985173;28;20505;-72
2021/12/16 03:11:50;;;;;;;13.65;5.05;;;8.70;99.90;;;;;;4985430;28;20023;-71
2021/12/16 03:14:35;;;;;;;13.82;6.07;;;8.70;99.90;;;;;;4985216;28;20059;-71
2021/12/16 03:17:13;;;;;;;12.25;6.20;;;8.70;99.90;;;;;;4983798;28;20046;-71
2021/12/16 03:22:41;;;;;;;7.35;3.92;;;8.70;99.90;;;;;;4984690;28;20522;-73
2021/12/16 03:36:32;;;;;;;;;;;8.70;99.90;;;;;;4988559;28;20037;-72
2021/12/16 03:39:11;;;;;;;19.70;5.90;;;8.70;99.90;;;;;;4988681;28;19906;-72
2021/12/16 03:41:37;;;;;;;11.93;5.88;;;8.70;99.90;;;;;;4988608;28;20042;-73
2021/12/16 03:44:10;;;;;;;11.77;5.90;;;8.70;99.90;;;;;;4988067;28;20027;-71
2021/12/16 03:46:41;;;;;;;15.50;6.40;;;8.70;99.90;;;;;;4987652;28;20031;-71
2021/12/16 03:49:14;;;;;;;16.75;6.75;;;8.70;99.90;;;;;;4987916;28;20023;-72
2021/12/16 03:52:00;;;;;;;15.70;5.40;;;8.70;99.90;;;;;;4987059;28;20057;-72
2021/12/16 03:54:30;;;;;;;12.10;5.97;;;8.70;99.90;;;;;;4987962;28;20043;-71
2021/12/16 03:56:59;;;;;;;14.10;5.07;;;8.70;99.90;;;;;;4968644;29;20050;-72
2021/12/16 03:59:28;;;;;;;16.48;6.88;;;8.70;99.90;;;;;;4967407;29;20058;-73
2021/12/16 04:01:56;;;;;;;25.73;6.88;;;8.70;99.90;;;;;;4968091;29;20062;-73
2021/12/16 04:04:22;;;;;;;16.35;5.18;;;8.80;99.90;;;;;;4968671;29;20038;-71
2021/12/16 04:06:48;;;;;;;10.93;5.88;;;8.70;99.90;;;;;;4968666;28;20028;-72
2021/12/16 04:09:17;;;;;;;15.15;6.00;;;8.70;99.90;;;;;;4968712;29;20081;-73
2021/12/16 04:11:51;;;;;;;16.52;7.13;;;8.80;99.90;;;;;;4976273;28;20046;-74
2021/12/16 04:14:18;;;;;;;15.85;6.95;;;8.70;99.90;;;;;;4987900;28;20046;-72
2021/12/16 04:16:56;;;;;;;18.98;7.15;;;8.80;99.90;;;;;;4987721;28;20031;-73
2021/12/16 04:19:26;;;;;;;14.90;6.35;;;8.80;99.90;;;;;;4987882;28;20022;-72
2021/12/16 04:22:01;;;;;;;18.42;6.85;;;8.80;99.90;;;;;;4987856;28;20046;-71
2021/12/16 04:24:28;;;;;;;14.57;5.82;;;8.80;99.90;;;;;;4986114;28;20027;-72
2021/12/16 04:26:56;;;;;;;25.10;6.63;;;8.80;99.90;;;;;;4987326;28;20090;-72
2021/12/16 04:29:23;;;;;;;22.20;7.72;;;8.80;99.90;;;;;;4987306;28;20031;-70
2021/12/16 04:31:51;;;;;;;13.43;6.47;;;8.80;99.90;;;;;;4986577;28;20047;-72
2021/12/16 04:34:17;;;;;;;24.75;7.55;;;8.80;99.90;;;;;;4987506;28;20094;-72
2021/12/16 04:36:44;;;;;;;23.13;6.50;;;8.80;99.90;;;;;;4987298;28;20026;-72
2021/12/16 04:39:14;;;;;;;23.75;7.47;;;8.80;99.90;;;;;;4987131;28;20415;-73
2021/12/16 04:41:44;;;;;;;12.30;5.82;;;8.80;99.90;;;;;;4987505;28;20043;-74
2021/12/16 04:44:13;;;;;;;15.30;5.53;;;8.80;99.90;;;;;;4985921;28;20034;-72
2021/12/16 04:46:40;;;;;;;16.70;6.82;;;8.80;99.90;;;;;;4986406;28;20460;-73
2021/12/16 04:49:09;;;;;;;18.77;7.47;;;8.80;99.90;;;;;;4986539;28;20046;-73
2021/12/16 04:51:37;;;;;;;21.83;7.13;;;8.80;99.90;;;;;;4987464;28;20066;-73
2021/12/16 04:54:04;;;;;;;24.35;7.40;;;8.80;99.90;;;;;;4985204;28;20057;-72
2021/12/16 04:56:31;;;;;;;23.85;7.60;;;8.80;99.90;;;;;;4986458;28;20062;-73
2021/12/16 04:58:57;;;;;;;14.77;6.18;;;8.80;99.90;;;;;;4987053;28;20827;-72
2021/12/16 05:01:24;;;;;;;17.45;6.53;;;8.80;99.90;;;;;;4987044;28;20039;-72
2021/12/16 05:03:51;;;;;;;19.85;6.53;;;8.80;99.90;;;;;;4987185;28;20041;-72
2021/12/16 05:06:18;;;;;;;24.58;6.55;;;8.80;99.90;;;;;;4984863;28;20027;-72
2021/12/16 05:08:44;;;;;;;26.88;8.30;;;8.80;99.90;;;;;;4985273;28;20038;-73
2021/12/16 05:11:13;;;;;;;22.50;8.13;;;8.80;99.90;;;;;;4986836;28;20033;-73
2021/12/16 05:13:40;;;;;;;25.10;7.45;;;8.80;99.90;;;;;;4985287;28;20029;-74
2021/12/16 05:16:06;;;;;;;24.30;7.97;;;8.80;99.90;;;;;;4986516;28;20019;-72
2021/12/16 05:18:36;;;;;;;30.23;7.82;;;8.80;99.90;;;;;;4986827;28;20031;-73
2021/12/16 05:21:09;;;;;;;21.33;7.47;;;8.80;99.90;;;;;;4986525;28;20931;-73
2021/12/16 05:26:21;;;;;;;18.77;7.00;;;8.80;99.90;;;;;;4967366;29;20038;-75
2021/12/16 05:28:52;;;;;;;24.13;7.07;;;8.80;99.90;;;;;;4965980;29;20484;-71
2021/12/16 05:31:20;;;;;;;29.92;7.93;;;8.80;99.90;;;;;;4967168;29;20032;-73
2021/12/16 05:33:46;;;;;;;32.13;7.50;;;8.80;99.90;;;;;;4967164;29;20078;-73
2021/12/16 05:36:12;;;;;;;18.65;7.47;;;8.80;99.90;;;;;;4966533;29;20026;-75
2021/12/16 05:38:38;;;;;;;27.10;7.35;;;8.80;99.90;;;;;;4966720;29;20023;-74
2021/12/16 05:41:07;;;;;;;30.25;8.05;;;8.80;99.90;;;;;;4967148;29;20038;-70
2021/12/16 05:43:33;;;;;;;36.38;8.40;;;8.80;99.90;;;;;;4966690;29;20056;-73
2021/12/16 05:45:59;;;;;;;23.48;7.63;;;8.80;99.90;;;;;;4966928;29;20083;-74
2021/12/16 05:48:41;;;;;;;34.13;7.93;;;8.80;99.90;;;;;;4966736;29;20027;-73
2021/12/16 05:51:21;;;;;;;34.97;8.30;;;8.80;99.90;;;;;;4965583;29;20054;-75
2021/12/16 05:53:48;;;;;;;26.08;8.70;;;8.80;99.90;;;;;;4965886;29;20038;-71
2021/12/16 05:56:14;;;;;;;20.63;7.35;;;8.80;99.90;;;;;;4966496;28;20042;-71
2021/12/16 05:58:42;;;;;;;24.63;7.60;;;8.80;99.90;;;;;;4966806;28;20066;-72
2021/12/16 06:01:17;;;;;;;23.30;8.32;;;8.80;99.90;;;;;;4965993;29;20019;-72
2021/12/16 06:03:43;;;;;;;24.00;8.20;;;8.80;99.90;;;;;;4966595;29;20039;-72
2021/12/16 06:06:09;;;;;;;14.85;5.93;;;8.80;99.90;;;;;;4966355;29;20053;-72
2021/12/16 06:08:36;;;;;;;34.00;8.18;;;8.80;99.90;;;;;;4976736;28;20035;-71
2021/12/16 06:11:22;;;;;;;16.58;6.95;;;8.80;99.90;;;;;;4985436;28;20086;-72
2021/12/16 06:14:19;;;;;;;25.52;8.40;;;8.80;99.90;;;;;;4985207;28;20037;-72
2021/12/16 06:22:38;;;;;;;27.83;6.90;;;8.80;99.90;;;;;;4965883;29;20451;-74
2021/12/16 06:27:54;;;;;;;17.08;6.10;;;8.90;99.90;;;;;;4966078;29;20486;-73
2021/12/16 06:30:24;;;;;;;16.75;6.40;;;8.90;99.90;;;;;;4964512;29;20149;-73
2021/12/16 06:32:50;;;;;;;24.98;7.07;;;8.90;99.90;;;;;;4968343;28;20027;-73
2021/12/16 06:35:16;;;;;;;25.50;6.70;;;8.90;99.90;;;;;;4984156;28;20078;-75
2021/12/16 06:37:43;;;;;;;24.70;7.97;;;8.90;99.90;;;;;;4984721;28;20031;-73
2021/12/16 06:40:09;;;;;;;14.35;6.22;;;8.90;99.90;;;;;;4984298;28;20031;-74
2021/12/16 06:42:38;;;;;;;14.05;6.72;;;8.90;99.90;;;;;;4983949;28;20034;-73
2021/12/16 06:45:15;;;;;;;22.98;7.38;;;8.90;99.90;;;;;;4983590;28;20027;-73
2021/12/16 06:47:49;;;;;;;25.45;7.55;;;8.90;99.90;;;;;;4985681;28;20046;-76
2021/12/16 06:50:25;;;;;;;;;;;8.90;99.90;;;;;;4985909;28;20083;-74
2021/12/16 06:52:55;;;;;;;13.98;5.43;;;9.00;99.90;;;;;;4985146;28;19906;-73
2021/12/16 06:55:43;;;;;;;18.73;7.10;;;8.90;99.90;;;;;;4984056;28;20027;-73
2021/12/16 07:00:50;;;;;;;18.85;6.82;;;8.90;99.90;;;;;;4984428;28;20027;-74
2021/12/16 07:03:19;;;;;;;17.25;5.72;;;8.90;99.90;;;;;;4984752;28;20031;-74
2021/12/16 07:05:47;;;;;;;24.33;7.38;;;8.90;99.90;;;;;;4981200;28;20102;-72
2021/12/16 07:08:20;;;;;;;17.25;6.43;;;8.90;99.90;;;;;;4983006;28;20431;-75
2021/12/16 07:10:52;;;;;;;26.40;5.07;;;8.90;99.90;;;;;;4987929;28;20376;-73
2021/12/16 07:13:28;;;;;;;23.75;6.38;;;8.90;99.90;;;;;;4986883;28;20030;-74
2021/12/16 07:15:55;;;;;;;19.95;5.65;;;8.90;99.90;;;;;;4988881;28;20087;-75
2021/12/16 07:18:21;;;;;;;15.63;6.07;;;8.90;99.90;;;;;;4988669;28;20030;-75
2021/12/16 07:20:46;;;;;;;22.73;6.50;;;8.90;99.90;;;;;;4990403;28;20515;-75
2021/12/16 07:23:12;;;;;;;20.40;6.35;;;8.90;99.90;;;;;;4988599;28;20043;-74
2021/12/16 07:25:39;;;;;;;19.42;6.15;;;8.90;99.90;;;;;;4988950;28;20042;-74
2021/12/16 07:28:07;;;;;;;21.33;7.07;;;8.90;99.90;;;;;;4987982;28;20050;-73
2021/12/16 07:30:41;;;;;;;30.73;6.55;;;8.90;99.90;;;;;;4987303;28;20435;-75
2021/12/16 07:33:09;;;;;;;27.02;6.57;;;8.90;99.90;;;;;;4986595;28;20027;-74
2021/12/16 07:35:36;;;;;;;19.52;5.95;;;8.90;99.90;;;;;;4988404;28;20035;-73
2021/12/16 07:38:04;;;;;;;15.52;4.88;;;8.90;99.90;;;;;;4980710;28;20051;-72
2021/12/16 07:40:30;;;;;;;12.55;5.72;;;8.90;99.90;;;;;;4984059;28;20050;-73
2021/12/16 07:45:35;;;;;;;15.45;6.30;;;8.90;99.90;;;;;;4982299;28;20069;-74
2021/12/16 07:48:01;;;;;;;14.55;5.28;;;8.90;99.90;;;;;;4979290;28;20095;-74
2021/12/16 07:50:27;;;;;;;20.08;6.20;;;8.90;99.90;;;;;;4975830;28;20023;-75
2021/12/16 07:52:57;;;;;;;23.85;6.18;;;8.90;99.90;;;;;;4982922;28;20067;-75
2021/12/16 07:55:23;;;;;;;20.25;5.93;;;8.80;99.90;;;;;;4971499;28;20038;-74
2021/12/16 07:57:49;;;;;;;24.50;7.03;;;8.80;99.90;;;;;;4986139;28;20062;-73
2021/12/16 08:00:21;;;;;;;23.48;6.32;;;8.90;99.90;;;;;;4989577;28;20050;-74
2021/12/16 08:02:48;;;;;;;19.23;5.72;;;8.80;99.90;;;;;;4987403;28;20045;-74
2021/12/16 08:05:15;;;;;;;20.52;6.32;;;8.90;99.90;;;;;;4986445;28;20107;-74
2021/12/16 08:07:41;;;;;;;17.05;5.95;;;8.90;99.90;;;;;;4985556;28;20038;-73
2021/12/16 08:10:12;;;;;;;19.13;7.60;;;8.90;99.90;;;;;;4986155;28;20027;-73
2021/12/16 08:12:38;;;;;;;16.38;7.00;;;9.00;99.90;;;;;;4987963;28;20027;-74
2021/12/16 08:15:06;;;;;;;20.00;6.30;;;8.90;99.90;;;;;;4987193;28;20031;-74
2021/12/16 08:17:32;;;;;;;16.83;6.57;;;8.90;99.90;;;;;;4985755;28;20031;-74
2021/12/16 08:19:58;;;;;;;16.98;5.82;;;8.90;99.90;;;;;;4985196;28;20067;-74
2021/12/16 08:22:24;;;;;;;19.23;6.22;;;8.90;99.90;;;;;;4982938;28;20102;-73
2021/12/16 08:24:50;;;;;;;17.30;6.60;;;8.90;99.90;;;;;;4986062;28;20035;-73
2021/12/16 08:27:18;;;;;;;16.08;5.13;;;9.00;99.90;;;;;;4985751;28;20042;-73
2021/12/16 08:29:46;;;;;;;25.25;7.18;;;9.00;99.90;;;;;;4985521;28;20090;-72
2021/12/16 08:32:12;;;;;;;23.25;6.65;;;9.00;99.90;;;;;;4987022;28;20035;-74
2021/12/16 08:34:39;;;;;;;14.95;6.25;;;9.10;99.90;;;;;;4986494;28;20118;-72
2021/12/16 08:37:07;;;;;;;19.25;6.32;;;9.00;99.90;;;;;;4987170;28;20026;-73
2021/12/16 08:39:34;;;;;;;26.77;7.00;;;9.00;99.90;;;;;;4987633;28;20035;-71
2021/12/16 08:42:01;;;;;;;15.65;6.57;;;9.00;99.90;;;;;;4986852;28;20407;-74
2021/12/16 08:44:27;;;;;;;17.90;5.38;;;9.10;99.90;;;;;;4987203;28;20085;-73
2021/12/16 08:46:59;;;;;;;28.83;7.03;;;9.10;99.90;;;;;;4986825;28;20058;-72
2021/12/16 08:49:26;;;;;;;30.48;7.15;;;9.10;99.90;;;;;;4985252;28;20042;-72
2021/12/16 08:51:55;;;;;;;25.13;7.18;;;9.10;99.90;;;;;;4985797;28;20023;-72
2021/12/16 08:54:23;;;;;;;25.05;7.32;;;9.10;99.90;;;;;;4988310;28;20086;-74
2021/12/16 08:56:49;;;;;;;24.42;8.48;;;9.10;99.90;;;;;;4986931;28;20054;-74
2021/12/16 08:59:16;;;;;;;18.83;5.45;;;9.10;99.90;;;;;;4985928;28;20034;-74
2021/12/16 09:01:45;;;;;;;20.98;7.82;;;9.10;99.90;;;;;;4986710;28;20034;-75
2021/12/16 09:04:12;;;;;;;19.23;6.35;;;9.10;99.90;;;;;;4986104;28;20031;-73
2021/12/16 09:06:39;;;;;;;22.80;7.13;;;9.10;99.90;;;;;;4986410;28;20090;-74
2021/12/16 09:09:08;;;;;;;16.08;5.93;;;9.10;99.90;;;;;;4986833;28;20134;-74
2021/12/16 09:11:40;;;;;;;24.67;7.72;;;9.10;99.90;;;;;;4985555;28;20092;-72
2021/12/16 09:14:07;;;;;;;23.02;8.10;;;9.10;99.90;;;;;;4985539;28;20314;-73
2021/12/16 09:16:35;;;;;;;26.10;6.15;;;9.10;99.90;;;;;;4984278;28;20475;-73
2021/12/16 09:19:02;;;;;;;18.63;7.70;;;9.20;99.90;;;;;;4983712;28;20047;-74
2021/12/16 09:21:32;;;;;;;21.92;6.50;;;9.10;99.90;;;;;;4986195;28;20050;-73
2021/12/16 09:23:59;;;;;;;16.98;7.20;;;9.20;99.90;;;;;;4988724;28;20111;-72
2021/12/16 09:26:25;;;;;;;18.20;6.97;;;9.20;99.90;;;;;;4982531;28;20034;-72
2021/12/16 09:28:52;;;;;;;16.38;7.63;;;9.20;99.90;;;;;;4984904;28;20476;-73
2021/12/16 09:31:20;;;;;;;18.05;6.20;;;9.20;99.90;;;;;;4985565;28;20093;-73
2021/12/16 09:33:51;;;;;;;20.80;6.78;;;9.20;99.90;;;;;;4983724;28;20474;-72
2021/12/16 09:36:21;;;;;;;19.00;6.50;;;9.20;99.90;;;;;;4983422;28;20023;-72
2021/12/16 09:38:48;;;;;;;20.50;6.10;;;9.30;99.90;;;;;;4978541;28;20041;-72
2021/12/16 09:41:14;;;;;;;37.92;7.80;;;9.30;99.90;;;;;;4985090;28;20026;-72
2021/12/16 09:43:44;;;;;;;18.42;6.68;;;9.30;99.90;;;;;;4973148;28;20050;-73
2021/12/16 09:46:15;;;;;;;31.70;8.95;;;9.40;99.90;;;;;;4980973;28;20034;-74
2021/12/16 09:48:43;;;;;;;18.52;6.97;;;9.40;99.90;;;;;;4984595;28;20484;-73
2021/12/16 09:51:16;;;;;;;20.02;8.13;;;9.40;99.90;;;;;;4976405;28;20079;-73
2021/12/16 09:53:43;;;;;;;28.83;7.80;;;9.40;99.90;;;;;;4978662;28;20515;-73
2021/12/16 09:56:11;;;;;;;20.83;7.07;;;9.40;99.90;;;;;;4979686;28;20547;-73
2021/12/16 09:58:42;;;;;;;19.73;7.03;;;9.40;99.90;;;;;;4996347;28;20041;-74
2021/12/16 10:01:10;;;;;;;16.27;6.35;;;9.40;99.90;;;;;;4965501;29;20035;-73
2021/12/16 10:03:40;;;;;;;26.08;7.00;;;9.30;99.90;;;;;;4964418;29;20050;-73
2021/12/16 10:06:06;;;;;;;18.27;6.93;;;9.40;99.90;;;;;;4966728;29;20039;-73
2021/12/16 10:08:32;;;;;;;24.92;6.90;;;9.40;99.90;;;;;;4965640;29;20502;-72
2021/12/16 10:10:58;;;;;;;30.08;6.68;;;9.40;99.90;;;;;;4966011;29;20042;-74
2021/12/16 10:13:38;;;;;;;17.85;7.38;;;9.40;99.90;;;;;;4965552;29;20029;-72
2021/12/16 10:18:39;;;;;;;19.38;6.72;;;9.40;99.90;;;;;;4966259;29;20479;-72
2021/12/16 10:21:07;;;;;;;21.17;6.60;;;9.50;99.90;;;;;;4965295;29;20586;-72
2021/12/16 10:23:40;;;;;;;23.95;7.45;;;9.50;99.90;;;;;;4970066;28;20078;-73
2021/12/16 10:26:22;;;;;;;30.73;7.15;;;9.50;99.90;;;;;;4984749;28;20023;-71
2021/12/16 10:28:52;;;;;;;16.80;6.75;;;9.50;99.90;;;;;;4985533;28;20379;-72
2021/12/16 10:31:31;;;;;;;15.02;5.75;;;9.50;99.90;;;;;;4983851;28;20031;-72
2021/12/16 10:34:01;;;;;;;12.27;5.60;;;9.50;99.90;;;;;;4985371;28;20585;-73
2021/12/16 10:36:38;;;;;;;24.25;6.80;;;9.50;99.90;;;;;;4985023;28;20058;-74
2021/12/16 10:39:25;;;;;;;18.85;7.93;;;9.60;99.90;;;;;;4985721;28;20046;-71
2021/12/16 10:41:56;;;;;;;16.50;6.68;;;9.60;99.90;;;;;;4981400;28;20047;-74
2021/12/16 10:44:23;;;;;;;16.92;6.10;;;9.60;99.90;;;;;;4983787;28;20098;-72
2021/12/16 10:47:17;;;;;;;15.63;4.82;;;9.60;99.90;;;;;;4989415;28;20483;-74
2021/12/16 10:49:52;;;;;;;22.63;6.20;;;9.60;99.90;;;;;;4989201;28;20101;-72
2021/12/16 10:52:27;;;;;;;19.15;5.82;;;9.50;99.90;;;;;;4989498;28;20034;-73
2021/12/16 10:54:54;;;;;;;14.65;5.57;;;9.50;99.90;;;;;;4988472;28;20027;-72
2021/12/16 10:57:27;;;;;;;18.33;6.55;;;9.60;99.90;;;;;;4987628;28;20458;-72
2021/12/16 11:00:12;;;;;;;14.63;5.75;;;9.60;99.90;;;;;;4987502;28;20093;-73
2021/12/16 11:02:40;;;;;;;15.73;6.50;;;9.60;99.90;;;;;;4987824;28;20039;-73
2021/12/16 11:05:05;;;;;;;22.20;5.88;;;9.60;99.90;;;;;;4986981;28;20433;-73
2021/12/16 11:07:46;;;;;;;17.77;4.55;;;9.70;99.90;;;;;;4987978;28;20026;-72
2021/12/16 11:10:29;;;;;;;14.93;5.05;;;9.70;99.90;;;;;;4988580;28;20059;-71
2021/12/16 11:13:08;;;;;;;14.10;4.88;;;9.70;99.90;;;;;;4988026;28;20023;-73
2021/12/16 11:15:42;;;;;;;14.00;5.03;;;9.70;99.90;;;;;;4987065;28;20031;-72
2021/12/16 11:18:20;;;;;;;9.68;4.60;;;9.70;99.90;;;;;;4987669;28;20037;-74
2021/12/16 11:21:09;;;;;;;13.50;3.33;;;9.70;99.90;;;;;;4987766;28;20051;-73
2021/12/16 11:23:40;;;;;;;10.48;4.07;;;9.80;99.90;;;;;;4995037;28;20031;-72
2021/12/16 11:26:19;;;;;;;13.45;3.40;;;9.80;99.90;;;;;;4989489;28;20090;-72
2021/12/16 11:28:51;;;;;;;8.45;3.40;;;9.70;99.90;;;;;;4974829;28;20047;-72
2021/12/16 11:31:46;;;;;;;11.27;3.17;;;9.80;99.90;;;;;;4978413;28;20031;-74
2021/12/16 11:34:12;;;;;;;6.78;3.53;;;9.80;99.90;;;;;;4980959;28;20047;-73
2021/12/16 11:36:53;;;;;;;9.73;2.92;;;9.80;99.90;;;;;;4985766;28;20038;-73
2021/12/16 11:39:22;;;;;;;8.70;2.60;;;9.80;99.90;;;;;;4985137;28;20065;-72
2021/12/16 11:42:00;;;;;;;4.68;2.00;;;9.80;99.90;;;;;;4986855;28;20035;-73
2021/12/16 11:44:32;;;;;;;10.45;3.00;;;9.80;99.90;;;;;;4986314;28;20901;-73
2021/12/16 11:47:02;;;;;;;12.88;2.60;;;9.90;99.90;;;;;;4987307;28;20106;-75
2021/12/16 11:49:44;;;;;;;4.82;2.50;;;9.90;99.90;;;;;;4984051;28;20038;-73
2021/12/16 11:52:37;;;;;;;6.97;2.25;;;9.90;99.90;;;;;;4975522;28;20031;-74
2021/12/16 11:55:14;;;;;;;4.80;2.55;;;9.90;99.90;;;;;;4976296;28;20360;-74
2021/12/16 11:57:51;;;;;;;6.13;2.72;;;9.90;99.90;;;;;;4985788;28;20107;-74
2021/12/16 12:00:38;;;;;;;11.75;3.50;;;9.90;99.90;;;;;;4987093;28;20033;-73
2021/12/16 12:03:10;;;;;;;7.28;2.05;;;9.90;99.90;;;;;;4986953;28;20403;-73
2021/12/16 12:05:42;;;;;;;7.00;3.22;;;9.90;99.90;;;;;;4987554;28;20027;-75
2021/12/16 12:08:21;;;;;;;6.18;3.20;;;9.80;99.90;;;;;;4987172;28;20050;-75
2021/12/16 12:10:59;;;;;;;13.80;3.40;;;9.80;99.90;;;;;;4987497;28;20023;-72
2021/12/16 12:13:39;;;;;;;9.35;2.53;;;9.80;99.90;;;;;;4987155;28;20086;-74
2021/12/16 12:16:18;;;;;;;4.85;2.85;;;9.80;99.90;;;;;;4986341;28;20410;-73
2021/12/16 12:18:52;;;;;;;11.25;4.20;;;9.80;99.90;;;;;;4986130;28;20522;-75
2021/12/16 12:21:24;;;;;;;7.90;3.40;;;9.90;99.90;;;;;;4986834;28;20149;-75
2021/12/16 12:23:57;;;;;;;9.98;2.97;;;9.90;99.90;;;;;;4987165;28;20031;-73
2021/12/16 12:26:25;;;;;;;8.27;2.95;;;9.90;99.90;;;;;;4985682;28;20019;-74
2021/12/16 12:28:56;;;;;;;14.35;3.03;;;9.90;99.90;;;;;;4986136;28;20042;-73
2021/12/16 12:31:24;;;;;;;16.08;2.90;;;9.90;99.90;;;;;;4987216;28;20057;-74
2021/12/16 12:33:53;;;;;;;7.10;3.22;;;9.90;99.90;;;;;;4985851;28;20042;-75
2021/12/16 12:36:21;;;;;;;9.50;3.42;;;10.00;99.90;;;;;;4986876;28;20022;-72
2021/12/16 12:38:46;;;;;;;11.27;3.65;;;10.00;99.90;;;;;;4986597;28;20468;-74
2021/12/16 12:41:15;;;;;;;8.18;3.63;;;10.00;99.90;;;;;;4987115;28;20030;-73
2021/12/16 12:43:41;;;;;;;8.77;2.85;;;10.00;99.90;;;;;;4986815;28;20081;-72
2021/12/16 12:46:11;;;;;;;4.88;2.72;;;10.00;99.90;;;;;;4986658;28;20126;-74
2021/12/16 12:48:42;;;;;;;7.97;3.78;;;10.00;99.90;;;;;;4984857;28;20460;-73
2021/12/16 12:51:09;;;;;;;12.93;3.60;;;10.00;99.90;;;;;;4986463;28;20027;-75
2021/12/16 12:53:50;;;;;;;11.60;3.83;;;10.00;99.90;;;;;;4986330;28;20054;-74
2021/12/16 12:56:21;;;;;;;15.25;3.80;;;10.00;99.90;;;;;;4986392;28;20027;-75
2021/12/16 12:58:54;;;;;;;10.23;2.85;;;10.00;99.90;;;;;;4985845;28;20031;-74
2021/12/16 13:01:34;;;;;;;9.27;3.53;;;10.10;99.90;;;;;;4986290;28;20086;-74
2021/12/16 13:04:13;;;;;;;5.13;2.75;;;10.00;99.90;;;;;;4984689;28;20066;-74
2021/12/16 13:06:57;;;;;;;8.82;3.90;;;10.00;99.90;;;;;;4984668;28;20450;-74
2021/12/16 13:09:33;;;;;;;7.25;3.33;;;9.90;99.90;;;;;;4985465;28;20037;-75
2021/12/16 13:12:00;;;;;;;7.43;3.53;;;9.90;99.90;;;;;;4985932;28;20035;-75
2021/12/16 13:14:45;;;;;;;14.23;4.90;;;9.90;99.90;;;;;;4984395;28;20022;-73
2021/12/16 13:23:19;;;;;;;7.57;2.72;;;9.90;99.90;;;;;;4985705;28;20022;-73
2021/12/16 13:28:22;;;;;;;10.68;4.20;;;9.90;99.90;;;;;;4986138;28;20106;-75
2021/12/16 13:30:55;;;;;;;9.50;3.67;;;9.90;99.90;;;;;;4984125;28;20057;-73
2021/12/16 13:33:26;;;;;;;6.45;2.90;;;9.90;99.90;;;;;;4985034;28;20380;-74
2021/12/16 13:36:12;;;;;;;14.68;3.40;;;9.80;99.90;;;;;;4985278;28;20034;-74
2021/12/16 13:38:43;;;;;;;5.20;2.83;;;9.90;99.90;;;;;;4985341;28;20030;-72
2021/12/16 13:41:30;;;;;;;5.15;2.38;;;9.90;99.90;;;;;;4985504;28;20035;-74
2021/12/16 13:44:04;;;;;;;4.90;2.67;;;9.90;99.90;;;;;;4966025;28;20527;-72
2021/12/16 13:47:09;;;;;;;6.03;2.13;;;9.90;99.90;;;;;;4964771;29;20023;-72
2021/12/16 14:03:51;;;;;;;19.80;3.20;;;9.80;99.90;;;;;;4985673;28;20438;-73
2021/12/16 14:06:36;;;;;;;8.68;2.17;;;9.90;99.90;;;;;;4984642;28;20471;-72
2021/12/16 14:09:18;;;;;;;5.93;2.28;;;9.80;99.90;;;;;;4984764;28;20415;-73
2021/12/16 14:12:55;;;;;;;4.53;2.28;;;9.80;99.90;;;;;;4979716;28;20042;-74
2021/12/16 14:23:52;;;;;;;8.02;3.00;;;9.80;99.90;;;;;;4972828;28;20105;-73
2021/12/16 14:34:54;;;;;;;8.85;2.58;;;9.80;99.90;;;;;;4981020;28;20086;-74
2021/12/16 14:37:30;;;;;;;8.32;3.05;;;9.70;99.90;;;;;;4975361;28;20059;-72
2021/12/16 14:43:02;;;;;;;10.70;2.67;;;9.70;99.90;;;;;;4965955;28;20084;-73
2021/12/16 14:45:39;;;;;;;8.88;3.40;;;9.70;99.90;;;;;;4975195;28;20037;-74
2021/12/16 14:50:41;;;;;;;7.13;3.03;;;9.70;99.90;;;;;;4981135;28;20698;-74
2021/12/16 14:53:38;;;;;;;4.60;2.20;;;9.70;99.90;;;;;;4980655;28;20038;-74
2021/12/16 14:56:17;;;;;;;9.60;1.88;;;9.70;99.90;;;;;;4971191;28;20026;-74
2021/12/16 14:58:48;;;;;;;12.20;3.17;;;9.70;99.90;;;;;;4981706;28;20031;-73
2021/12/16 15:01:20;;;;;;;5.55;2.92;;;9.70;99.90;;;;;;4981891;28;20507;-73
2021/12/16 15:03:48;;;;;;;5.43;2.83;;;9.70;99.90;;;;;;4984881;28;20071;-75
2021/12/16 15:06:31;;;;;;;13.10;4.00;;;9.70;99.90;;;;;;4975749;28;20024;-73
2021/12/16 15:09:15;;;;;;;17.15;7.15;;;9.70;99.90;;;;;;4974235;28;20057;-72
2021/12/16 15:12:10;;;;;;;14.30;6.07;;;9.70;99.90;;;;;;4971354;28;20500;-73
2021/12/16 15:38:05;;;;;;;6.20;3.33;;;9.50;99.90;;;;;;4985430;28;20038;-75
2021/12/16 15:43:16;;;;;;;6.65;2.72;;;9.50;99.90;;;;;;4982853;28;20046;-74
2021/12/16 15:45:48;;;;;;;7.45;3.13;;;9.50;99.90;;;;;;4987985;28;20050;-73
2021/12/16 15:48:21;;;;;;;7.53;2.88;;;9.50;99.90;;;;;;4973040;28;20500;-73
2021/12/16 15:51:00;;;;;;;6.13;2.33;;;9.50;99.90;;;;;;4986834;28;20022;-75
2021/12/16 15:53:30;;;;;;;6.55;3.25;;;9.50;99.90;;;;;;4985817;28;20471;-75
2021/12/16 15:56:09;;;;;;;11.65;3.33;;;9.60;99.90;;;;;;4980738;28;20030;-74
2021/12/16 15:58:51;;;;;;;11.30;3.42;;;9.50;99.90;;;;;;4973429;28;20035;-73
2021/12/16 16:01:29;;;;;;;7.72;3.10;;;9.60;99.90;;;;;;4967708;29;20039;-75
2021/12/16 16:03:56;;;;;;;5.28;2.50;;;9.60;99.90;;;;;;4968851;29;20042;-74
2021/12/16 16:06:22;;;;;;;6.10;2.92;;;9.60;99.90;;;;;;4970120;28;20019;-74
2021/12/16 16:08:51;;;;;;;7.75;3.15;;;9.60;99.90;;;;;;4987032;28;20033;-75
2021/12/16 16:11:28;;;;;;;6.55;3.15;;;9.60;99.90;;;;;;4987047;28;20095;-75
2021/12/16 16:13:58;;;;;;;7.05;3.00;;;9.60;99.90;;;;;;4985751;28;20035;-74
2021/12/16 16:16:30;;;;;;;6.57;3.22;;;9.60;99.90;;;;;;4987333;28;20027;-73
2021/12/16 16:19:00;;;;;;;5.35;2.90;;;9.60;99.90;;;;;;4980349;28;20629;-73
2021/12/16 16:21:30;;;;;;;4.85;2.42;;;9.60;99.90;;;;;;4967923;29;20047;-74
2021/12/16 16:24:00;;;;;;;5.93;3.13;;;9.60;99.90;;;;;;4981494;28;20429;-73
2021/12/16 16:26:28;;;;;;;10.07;3.65;;;9.70;99.90;;;;;;4967474;29;20032;-73
2021/12/16 16:29:02;;;;;;;6.68;2.75;;;9.60;99.90;;;;;;4967581;29;20162;-74
2021/12/16 16:31:30;;;;;;;8.77;2.75;;;9.60;99.90;;;;;;4966546;29;20027;-74
2021/12/16 16:33:57;;;;;;;9.60;3.33;;;9.60;99.90;;;;;;4982128;28;20038;-74
2021/12/16 16:36:25;;;;;;;7.97;3.13;;;9.60;99.90;;;;;;4965495;29;20034;-74
2021/12/16 16:38:53;;;;;;;5.47;2.97;;;9.60;99.90;;;;;;4967419;28;20094;-73
2021/12/16 16:41:21;;;;;;;6.85;2.97;;;9.60;99.90;;;;;;4967578;28;20027;-74
2021/12/16 16:43:52;;;;;;;12.77;3.70;;;9.60;99.90;;;;;;4965685;29;20042;-73